sensor_id;sensor_type;location;lat;lon;timestamp;P1;P2;P0
72467;PMS3003;60626;43.582;1.470;2023-02-07T00:00:20;67.50;54.25;35.25
72467;PMS3003;60626;43.582;1.470;2023-02-07T00:02:47;68.75;54.25;36.25
72467;PMS3003;60626;43.582;1.470;2023-02-07T00:05:14;70.00;55.00;36.75
72467;PMS3003;60626;43.582;1.470;2023-02-07T00:07:41;67.75;52.50;36.00
72467;PMS3003;60626;43.582;1.470;2023-02-07T00:10:08;67.00;52.25;35.00
72467;PMS3003;60626;43.582;1.470;2023-02-07T00:12:35;69.50;55.00;35.75
72467;PMS3003;60626;43.582;1.470;2023-02-07T00:15:02;67.00;53.25;35.00
72467;PMS3003;60626;43.582;1.470;2023-02-07T00:17:30;69.50;54.50;36.25
72467;PMS3003;60626;43.582;1.470;2023-02-07T00:19:57;68.25;53.25;34.00
72467;PMS3003;60626;43.582;1.470;2023-02-07T00:22:24;69.00;52.00;35.00
72467;PMS3003;60626;43.582;1.470;2023-02-07T00:24:50;66.75;53.50;36.00
72467;PMS3003;60626;43.582;1.470;2023-02-07T00:27:17;70.00;53.00;35.00
72467;PMS3003;60626;43.582;1.470;2023-02-07T00:29:44;63.50;52.50;34.00
72467;PMS3003;60626;43.582;1.470;2023-02-07T00:32:10;62.50;49.00;33.00
72467;PMS3003;60626;43.582;1.470;2023-02-07T00:34:37;67.50;52.25;33.25
72467;PMS3003;60626;43.582;1.470;2023-02-07T00:37:04;63.75;50.00;33.25
72467;PMS3003;60626;43.582;1.470;2023-02-07T00:39:31;59.75;49.50;35.00
72467;PMS3003;60626;43.582;1.470;2023-02-07T00:41:58;62.00;51.25;34.00
72467;PMS3003;60626;43.582;1.470;2023-02-07T00:44:25;66.00;53.00;33.50
72467;PMS3003;60626;43.582;1.470;2023-02-07T00:46:52;61.75;49.75;33.00
72467;PMS3003;60626;43.582;1.470;2023-02-07T00:49:18;63.00;50.75;33.00
72467;PMS3003;60626;43.582;1.470;2023-02-07T00:51:45;62.00;50.00;34.00
72467;PMS3003;60626;43.582;1.470;2023-02-07T00:54:12;59.25;49.25;33.00
72467;PMS3003;60626;43.582;1.470;2023-02-07T00:56:38;64.00;49.75;33.00
72467;PMS3003;60626;43.582;1.470;2023-02-07T00:59:05;64.00;50.00;33.00
72467;PMS3003;60626;43.582;1.470;2023-02-07T01:01:33;60.50;49.50;33.00
72467;PMS3003;60626;43.582;1.470;2023-02-07T01:04:00;67.50;51.50;33.75
72467;PMS3003;60626;43.582;1.470;2023-02-07T01:06:27;62.75;49.50;34.00
72467;PMS3003;60626;43.582;1.470;2023-02-07T01:08:55;64.75;49.75;32.50
72467;PMS3003;60626;43.582;1.470;2023-02-07T01:11:26;67.00;52.00;34.25
72467;PMS3003;60626;43.582;1.470;2023-02-07T01:13:54;66.00;53.00;35.00
72467;PMS3003;60626;43.582;1.470;2023-02-07T01:16:26;68.25;52.50;34.50
72467;PMS3003;60626;43.582;1.470;2023-02-07T01:18:55;64.00;49.25;33.50
72467;PMS3003;60626;43.582;1.470;2023-02-07T01:21:23;63.50;51.00;35.00
72467;PMS3003;60626;43.582;1.470;2023-02-07T01:23:51;66.75;53.00;35.25
72467;PMS3003;60626;43.582;1.470;2023-02-07T01:26:22;60.75;48.75;31.50
72467;PMS3003;60626;43.582;1.470;2023-02-07T01:28:50;62.00;49.50;33.00
72467;PMS3003;60626;43.582;1.470;2023-02-07T01:31:17;67.75;52.25;35.75
72467;PMS3003;60626;43.582;1.470;2023-02-07T01:33:43;68.25;53.00;35.00
72467;PMS3003;60626;43.582;1.470;2023-02-07T01:36:11;61.50;50.00;33.00
72467;PMS3003;60626;43.582;1.470;2023-02-07T01:38:40;66.50;51.75;33.25
72467;PMS3003;60626;43.582;1.470;2023-02-07T01:41:08;70.25;53.50;34.75
72467;PMS3003;60626;43.582;1.470;2023-02-07T01:43:51;69.00;53.75;33.75
72467;PMS3003;60626;43.582;1.470;2023-02-07T01:46:19;67.25;53.75;36.00
72467;PMS3003;60626;43.582;1.470;2023-02-07T01:48:46;67.50;52.25;36.00
72467;PMS3003;60626;43.582;1.470;2023-02-07T01:51:12;71.25;53.00;34.75
72467;PMS3003;60626;43.582;1.470;2023-02-07T01:53:39;66.00;53.25;34.75
72467;PMS3003;60626;43.582;1.470;2023-02-07T01:56:07;61.75;48.25;31.50
72467;PMS3003;60626;43.582;1.470;2023-02-07T01:58:54;60.25;49.00;32.50
72467;PMS3003;60626;43.582;1.470;2023-02-07T02:01:22;64.50;49.75;33.75
72467;PMS3003;60626;43.582;1.470;2023-02-07T02:03:52;62.00;49.25;32.50
72467;PMS3003;60626;43.582;1.470;2023-02-07T02:06:20;63.75;47.25;30.75
72467;PMS3003;60626;43.582;1.470;2023-02-07T02:08:51;62.25;48.50;32.00
72467;PMS3003;60626;43.582;1.470;2023-02-07T02:17:23;58.75;48.00;32.00
72467;PMS3003;60626;43.582;1.470;2023-02-07T02:38:55;53.75;43.25;29.00
72467;PMS3003;60626;43.582;1.470;2023-02-07T02:41:26;49.25;41.00;28.00
72467;PMS3003;60626;43.582;1.470;2023-02-07T02:44:07;46.75;39.00;26.50
72467;PMS3003;60626;43.582;1.470;2023-02-07T02:46:39;49.25;41.50;28.00
72467;PMS3003;60626;43.582;1.470;2023-02-07T02:49:07;52.75;41.00;28.25
72467;PMS3003;60626;43.582;1.470;2023-02-07T02:51:38;46.25;39.25;27.25
72467;PMS3003;60626;43.582;1.470;2023-02-07T02:54:23;49.00;41.00;25.75
72467;PMS3003;60626;43.582;1.470;2023-02-07T03:07:40;52.75;40.50;27.00
72467;PMS3003;60626;43.582;1.470;2023-02-07T03:10:37;53.00;39.00;27.25
72467;PMS3003;60626;43.582;1.470;2023-02-07T03:16:02;53.25;42.25;29.00
72467;PMS3003;60626;43.582;1.470;2023-02-07T03:21:19;51.75;41.25;28.00
72467;PMS3003;60626;43.582;1.470;2023-02-07T03:23:51;53.00;42.50;28.25
72467;PMS3003;60626;43.582;1.470;2023-02-07T03:26:21;49.50;39.25;27.00
72467;PMS3003;60626;43.582;1.470;2023-02-07T03:28:49;43.25;36.00;25.00
72467;PMS3003;60626;43.582;1.470;2023-02-07T03:31:20;48.25;40.50;27.50
72467;PMS3003;60626;43.582;1.470;2023-02-07T03:33:50;45.25;37.75;26.25
72467;PMS3003;60626;43.582;1.470;2023-02-07T03:36:26;48.75;38.75;28.00
72467;PMS3003;60626;43.582;1.470;2023-02-07T03:38:57;51.00;39.50;26.00
72467;PMS3003;60626;43.582;1.470;2023-02-07T03:41:32;58.50;47.00;31.50
72467;PMS3003;60626;43.582;1.470;2023-02-07T03:44:03;61.25;50.00;33.50
72467;PMS3003;60626;43.582;1.470;2023-02-07T03:46:36;60.75;47.50;30.75
72467;PMS3003;60626;43.582;1.470;2023-02-07T03:49:03;66.50;50.25;32.50
72467;PMS3003;60626;43.582;1.470;2023-02-07T03:51:33;63.50;52.00;33.25
72467;PMS3003;60626;43.582;1.470;2023-02-07T03:54:01;64.75;51.00;32.50
72467;PMS3003;60626;43.582;1.470;2023-02-07T03:56:28;66.50;51.00;34.25
72467;PMS3003;60626;43.582;1.470;2023-02-07T03:58:55;64.75;52.00;34.00
72467;PMS3003;60626;43.582;1.470;2023-02-07T04:01:21;61.00;49.50;33.25
72467;PMS3003;60626;43.582;1.470;2023-02-07T04:03:48;63.75;50.00;33.00
72467;PMS3003;60626;43.582;1.470;2023-02-07T04:06:15;65.50;51.00;33.00
72467;PMS3003;60626;43.582;1.470;2023-02-07T04:08:42;69.00;52.25;34.75
72467;PMS3003;60626;43.582;1.470;2023-02-07T04:11:08;59.00;49.25;34.00
72467;PMS3003;60626;43.582;1.470;2023-02-07T04:13:35;62.75;49.50;34.75
72467;PMS3003;60626;43.582;1.470;2023-02-07T04:16:05;62.25;50.00;32.75
72467;PMS3003;60626;43.582;1.470;2023-02-07T04:18:32;66.00;50.25;33.00
72467;PMS3003;60626;43.582;1.470;2023-02-07T04:21:00;65.25;51.25;34.00
72467;PMS3003;60626;43.582;1.470;2023-02-07T04:23:28;61.75;50.00;33.25
72467;PMS3003;60626;43.582;1.470;2023-02-07T04:25:55;61.75;49.00;32.25
72467;PMS3003;60626;43.582;1.470;2023-02-07T04:28:22;66.50;49.00;32.75
72467;PMS3003;60626;43.582;1.470;2023-02-07T04:30:49;59.00;47.25;33.50
72467;PMS3003;60626;43.582;1.470;2023-02-07T04:33:15;60.25;49.50;33.00
72467;PMS3003;60626;43.582;1.470;2023-02-07T04:35:42;63.00;47.75;32.00
72467;PMS3003;60626;43.582;1.470;2023-02-07T04:38:09;59.25;48.50;32.75
72467;PMS3003;60626;43.582;1.470;2023-02-07T04:40:37;65.75;50.00;33.50
72467;PMS3003;60626;43.582;1.470;2023-02-07T04:43:04;62.50;50.50;33.75
72467;PMS3003;60626;43.582;1.470;2023-02-07T04:45:30;69.50;54.75;34.00
72467;PMS3003;60626;43.582;1.470;2023-02-07T04:47:57;65.25;48.25;34.00
72467;PMS3003;60626;43.582;1.470;2023-02-07T04:50:24;65.50;52.25;33.25
72467;PMS3003;60626;43.582;1.470;2023-02-07T04:52:50;65.00;50.25;33.00
72467;PMS3003;60626;43.582;1.470;2023-02-07T04:55:17;58.75;48.00;32.50
72467;PMS3003;60626;43.582;1.470;2023-02-07T04:57:43;63.00;48.00;30.25
72467;PMS3003;60626;43.582;1.470;2023-02-07T05:00:10;59.50;48.75;30.75
72467;PMS3003;60626;43.582;1.470;2023-02-07T05:02:37;60.50;47.00;31.75
72467;PMS3003;60626;43.582;1.470;2023-02-07T05:05:04;56.75;45.50;30.25
72467;PMS3003;60626;43.582;1.470;2023-02-07T05:07:31;60.50;46.75;30.25
72467;PMS3003;60626;43.582;1.470;2023-02-07T05:09:58;56.25;46.50;31.00
72467;PMS3003;60626;43.582;1.470;2023-02-07T05:12:24;55.00;45.25;29.25
72467;PMS3003;60626;43.582;1.470;2023-02-07T05:14:51;53.75;45.25;30.25
72467;PMS3003;60626;43.582;1.470;2023-02-07T05:17:18;52.50;42.50;29.00
72467;PMS3003;60626;43.582;1.470;2023-02-07T05:19:44;53.25;44.50;29.75
72467;PMS3003;60626;43.582;1.470;2023-02-07T05:22:11;49.00;41.00;28.00
72467;PMS3003;60626;43.582;1.470;2023-02-07T05:24:38;51.50;41.25;27.25
72467;PMS3003;60626;43.582;1.470;2023-02-07T05:27:04;50.75;41.75;29.00
72467;PMS3003;60626;43.582;1.470;2023-02-07T05:29:31;53.00;43.50;29.25
72467;PMS3003;60626;43.582;1.470;2023-02-07T05:31:57;50.50;42.50;29.50
72467;PMS3003;60626;43.582;1.470;2023-02-07T05:34:43;53.50;42.00;28.00
72467;PMS3003;60626;43.582;1.470;2023-02-07T05:37:09;54.00;43.00;28.00
72467;PMS3003;60626;43.582;1.470;2023-02-07T05:39:36;52.00;43.00;28.75
72467;PMS3003;60626;43.582;1.470;2023-02-07T05:42:03;47.50;38.00;27.00
72467;PMS3003;60626;43.582;1.470;2023-02-07T05:44:29;46.25;35.75;23.75
72467;PMS3003;60626;43.582;1.470;2023-02-07T05:46:56;56.75;44.75;29.00
72467;PMS3003;60626;43.582;1.470;2023-02-07T05:49:23;49.00;40.75;27.00
72467;PMS3003;60626;43.582;1.470;2023-02-07T05:51:49;53.75;42.50;28.75
72467;PMS3003;60626;43.582;1.470;2023-02-07T05:54:16;53.50;41.25;28.00
72467;PMS3003;60626;43.582;1.470;2023-02-07T05:56:42;50.00;39.25;26.00
72467;PMS3003;60626;43.582;1.470;2023-02-07T05:59:09;49.25;42.75;29.00
72467;PMS3003;60626;43.582;1.470;2023-02-07T06:01:36;51.25;43.50;29.25
72467;PMS3003;60626;43.582;1.470;2023-02-07T06:04:02;54.00;42.00;26.75
72467;PMS3003;60626;43.582;1.470;2023-02-07T06:06:29;52.75;43.50;28.00
72467;PMS3003;60626;43.582;1.470;2023-02-07T06:08:56;54.00;42.25;27.75
72467;PMS3003;60626;43.582;1.470;2023-02-07T06:11:23;55.50;42.75;28.75
72467;PMS3003;60626;43.582;1.470;2023-02-07T06:13:49;51.25;41.00;27.75
72467;PMS3003;60626;43.582;1.470;2023-02-07T06:16:16;47.75;37.00;23.75
72467;PMS3003;60626;43.582;1.470;2023-02-07T06:18:42;41.00;37.00;24.50
72467;PMS3003;60626;43.582;1.470;2023-02-07T06:21:09;45.00;37.75;25.75
72467;PMS3003;60626;43.582;1.470;2023-02-07T06:23:36;43.25;34.25;24.00
72467;PMS3003;60626;43.582;1.470;2023-02-07T06:26:02;31.50;28.75;19.25
72467;PMS3003;60626;43.582;1.470;2023-02-07T06:28:29;41.00;35.25;24.00
72467;PMS3003;60626;43.582;1.470;2023-02-07T06:30:56;34.25;33.25;23.00
72467;PMS3003;60626;43.582;1.470;2023-02-07T06:33:22;31.75;26.25;17.75
72467;PMS3003;60626;43.582;1.470;2023-02-07T06:35:49;12.25;12.00;2.25
72467;PMS3003;60626;43.582;1.470;2023-02-07T06:38:17;32.75;28.50;20.50
72467;PMS3003;60626;43.582;1.470;2023-02-07T06:40:44;26.50;26.00;18.25
72467;PMS3003;60626;43.582;1.470;2023-02-07T06:43:10;30.50;28.25;21.50
72467;PMS3003;60626;43.582;1.470;2023-02-07T06:45:37;31.50;31.00;22.25
72467;PMS3003;60626;43.582;1.470;2023-02-07T06:48:04;23.75;22.50;18.00
72467;PMS3003;60626;43.582;1.470;2023-02-07T06:50:32;31.00;29.25;21.00
72467;PMS3003;60626;43.582;1.470;2023-02-07T06:52:59;31.75;30.00;21.50
72467;PMS3003;60626;43.582;1.470;2023-02-07T06:55:30;31.00;25.00;18.50
72467;PMS3003;60626;43.582;1.470;2023-02-07T06:58:00;32.25;28.00;19.00
72467;PMS3003;60626;43.582;1.470;2023-02-07T07:00:27;33.25;25.00;17.00
72467;PMS3003;60626;43.582;1.470;2023-02-07T07:02:54;32.00;27.50;17.25
72467;PMS3003;60626;43.582;1.470;2023-02-07T07:05:21;28.75;26.50;17.75
72467;PMS3003;60626;43.582;1.470;2023-02-07T07:07:48;26.00;22.75;16.00
72467;PMS3003;60626;43.582;1.470;2023-02-07T07:10:16;30.00;22.50;17.75
72467;PMS3003;60626;43.582;1.470;2023-02-07T07:12:44;19.50;19.50;15.00
72467;PMS3003;60626;43.582;1.470;2023-02-07T07:15:11;21.75;19.25;14.75
72467;PMS3003;60626;43.582;1.470;2023-02-07T07:17:38;16.75;15.25;13.00
72467;PMS3003;60626;43.582;1.470;2023-02-07T07:20:05;18.75;18.00;13.00
72467;PMS3003;60626;43.582;1.470;2023-02-07T07:22:33;22.75;17.50;13.00
72467;PMS3003;60626;43.582;1.470;2023-02-07T07:25:00;14.25;14.25;10.50
72467;PMS3003;60626;43.582;1.470;2023-02-07T07:27:27;19.00;17.00;13.25
72467;PMS3003;60626;43.582;1.470;2023-02-07T07:29:54;17.25;15.50;11.25
72467;PMS3003;60626;43.582;1.470;2023-02-07T07:32:20;16.25;14.50;11.00
72467;PMS3003;60626;43.582;1.470;2023-02-07T07:34:59;18.00;14.50;12.75
72467;PMS3003;60626;43.582;1.470;2023-02-07T07:37:26;19.00;19.00;13.25
72467;PMS3003;60626;43.582;1.470;2023-02-07T07:39:52;14.75;14.75;10.50
72467;PMS3003;60626;43.582;1.470;2023-02-07T07:42:19;16.00;15.00;12.00
72467;PMS3003;60626;43.582;1.470;2023-02-07T07:44:46;17.00;17.00;13.00
72467;PMS3003;60626;43.582;1.470;2023-02-07T07:47:12;20.25;16.50;11.50
72467;PMS3003;60626;43.582;1.470;2023-02-07T07:49:39;15.75;15.75;13.00
72467;PMS3003;60626;43.582;1.470;2023-02-07T07:52:06;17.25;16.75;14.00
72467;PMS3003;60626;43.582;1.470;2023-02-07T07:54:33;16.00;16.00;12.25
72467;PMS3003;60626;43.582;1.470;2023-02-07T07:56:59;19.75;16.75;13.00
72467;PMS3003;60626;43.582;1.470;2023-02-07T07:59:26;21.00;18.00;13.00
72467;PMS3003;60626;43.582;1.470;2023-02-07T08:01:53;18.50;15.50;12.75
72467;PMS3003;60626;43.582;1.470;2023-02-07T08:04:19;24.00;19.50;13.50
72467;PMS3003;60626;43.582;1.470;2023-02-07T08:06:46;21.00;20.75;15.25
72467;PMS3003;60626;43.582;1.470;2023-02-07T08:09:13;20.75;19.00;14.75
72467;PMS3003;60626;43.582;1.470;2023-02-07T08:11:39;16.00;14.25;10.50
72467;PMS3003;60626;43.582;1.470;2023-02-07T08:14:06;19.25;18.25;13.75
72467;PMS3003;60626;43.582;1.470;2023-02-07T08:16:33;19.00;18.00;12.75
72467;PMS3003;60626;43.582;1.470;2023-02-07T08:19:00;19.50;17.50;14.00
72467;PMS3003;60626;43.582;1.470;2023-02-07T08:21:26;19.75;16.75;13.00
72467;PMS3003;60626;43.582;1.470;2023-02-07T08:23:53;18.50;16.75;12.25
72467;PMS3003;60626;43.582;1.470;2023-02-07T08:26:20;21.50;19.75;13.75
72467;PMS3003;60626;43.582;1.470;2023-02-07T08:28:46;25.00;18.00;13.25
72467;PMS3003;60626;43.582;1.470;2023-02-07T08:31:14;21.25;19.75;14.25
72467;PMS3003;60626;43.582;1.470;2023-02-07T08:33:40;23.50;20.00;14.00
72467;PMS3003;60626;43.582;1.470;2023-02-07T08:36:07;19.50;16.25;13.00
72467;PMS3003;60626;43.582;1.470;2023-02-07T08:38:36;19.25;16.25;13.75
72467;PMS3003;60626;43.582;1.470;2023-02-07T08:41:03;20.25;20.25;16.00
72467;PMS3003;60626;43.582;1.470;2023-02-07T08:43:30;19.25;17.00;10.50
72467;PMS3003;60626;43.582;1.470;2023-02-07T08:45:57;19.25;16.50;12.25
72467;PMS3003;60626;43.582;1.470;2023-02-07T08:48:25;20.25;19.00;14.00
72467;PMS3003;60626;43.582;1.470;2023-02-07T08:50:52;21.75;17.50;13.00
72467;PMS3003;60626;43.582;1.470;2023-02-07T08:53:20;20.50;20.50;13.75
72467;PMS3003;60626;43.582;1.470;2023-02-07T08:55:46;19.75;19.00;14.00
72467;PMS3003;60626;43.582;1.470;2023-02-07T08:58:13;20.25;18.75;15.00
72467;PMS3003;60626;43.582;1.470;2023-02-07T09:00:40;18.00;17.00;14.00
72467;PMS3003;60626;43.582;1.470;2023-02-07T09:03:07;20.25;20.00;13.50
72467;PMS3003;60626;43.582;1.470;2023-02-07T09:05:34;18.00;16.75;12.25
72467;PMS3003;60626;43.582;1.470;2023-02-07T09:08:01;23.50;21.50;15.00
72467;PMS3003;60626;43.582;1.470;2023-02-07T09:10:28;15.50;15.50;11.50
72467;PMS3003;60626;43.582;1.470;2023-02-07T09:12:55;17.25;14.50;9.25
72467;PMS3003;60626;43.582;1.470;2023-02-07T09:15:21;15.00;12.00;11.25
72467;PMS3003;60626;43.582;1.470;2023-02-07T09:17:48;19.25;16.75;12.75
72467;PMS3003;60626;43.582;1.470;2023-02-07T09:20:15;19.50;17.25;13.00
72467;PMS3003;60626;43.582;1.470;2023-02-07T09:22:41;9.25;9.25;7.25
72467;PMS3003;60626;43.582;1.470;2023-02-07T09:25:27;20.50;19.25;13.75
72467;PMS3003;60626;43.582;1.470;2023-02-07T09:27:53;19.00;17.75;13.00
72467;PMS3003;60626;43.582;1.470;2023-02-07T09:30:21;17.25;15.25;11.00
72467;PMS3003;60626;43.582;1.470;2023-02-07T09:32:47;18.50;14.25;9.00
72467;PMS3003;60626;43.582;1.470;2023-02-07T09:35:14;15.50;14.00;8.50
72467;PMS3003;60626;43.582;1.470;2023-02-07T09:37:41;10.50;9.00;7.50
72467;PMS3003;60626;43.582;1.470;2023-02-07T09:40:15;14.50;13.50;9.50
72467;PMS3003;60626;43.582;1.470;2023-02-07T09:42:48;20.25;15.50;10.25
72467;PMS3003;60626;43.582;1.470;2023-02-07T09:45:21;14.50;13.75;9.25
72467;PMS3003;60626;43.582;1.470;2023-02-07T09:47:53;14.75;13.00;9.75
72467;PMS3003;60626;43.582;1.470;2023-02-07T09:50:31;12.25;11.25;8.00
72467;PMS3003;60626;43.582;1.470;2023-02-07T09:53:06;16.75;13.50;8.25
72467;PMS3003;60626;43.582;1.470;2023-02-07T09:55:48;13.00;11.00;7.00
72467;PMS3003;60626;43.582;1.470;2023-02-07T10:01:16;13.00;12.00;7.00
72467;PMS3003;60626;43.582;1.470;2023-02-07T10:04:34;11.50;11.00;8.00
72467;PMS3003;60626;43.582;1.470;2023-02-07T10:06:40;11.00;10.00;8.00
72467;PMS3003;60626;43.582;1.470;2023-02-07T10:09:15;7.25;7.25;6.00
72467;PMS3003;60626;43.582;1.470;2023-02-07T10:12:02;10.25;9.25;7.50
72467;PMS3003;60626;43.582;1.470;2023-02-07T10:30:51;2.00;1.00;1.00
72467;PMS3003;60626;43.582;1.470;2023-02-07T10:33:26;0.00;0.00;0.00
72467;PMS3003;60626;43.582;1.470;2023-02-07T10:36:02;1.00;1.00;0.25
72467;PMS3003;60626;43.582;1.470;2023-02-07T10:38:33;2.00;0.00;0.00
72467;PMS3003;60626;43.582;1.470;2023-02-07T10:41:12;0.25;0.25;0.25
72467;PMS3003;60626;43.582;1.470;2023-02-07T10:43:44;1.00;1.00;1.00
72467;PMS3003;60626;43.582;1.470;2023-02-07T10:46:13;2.00;2.00;1.00
72467;PMS3003;60626;43.582;1.470;2023-02-07T10:48:43;1.00;1.00;0.00
72467;PMS3003;60626;43.582;1.470;2023-02-07T10:51:14;1.00;1.00;0.00
72467;PMS3003;60626;43.582;1.470;2023-02-07T10:54:02;0.00;0.00;0.00
72467;PMS3003;60626;43.582;1.470;2023-02-07T10:56:33;0.00;0.00;0.00
72467;PMS3003;60626;43.582;1.470;2023-02-07T10:59:02;0.00;0.00;0.00
72467;PMS3003;60626;43.582;1.470;2023-02-07T11:01:30;1.25;1.25;1.00
72467;PMS3003;60626;43.582;1.470;2023-02-07T11:03:58;1.25;1.25;1.00
72467;PMS3003;60626;43.582;1.470;2023-02-07T11:11:37;1.00;1.00;0.00
72467;PMS3003;60626;43.582;1.470;2023-02-07T11:14:06;0.00;0.00;0.00
72467;PMS3003;60626;43.582;1.470;2023-02-07T11:16:41;1.00;1.00;1.00
72467;PMS3003;60626;43.582;1.470;2023-02-07T11:19:13;2.25;1.00;0.75
72467;PMS3003;60626;43.582;1.470;2023-02-07T11:21:47;1.00;1.00;0.50
72467;PMS3003;60626;43.582;1.470;2023-02-07T11:24:18;1.00;1.00;1.00
72467;PMS3003;60626;43.582;1.470;2023-02-07T11:27:22;0.75;0.75;0.75
72467;PMS3003;60626;43.582;1.470;2023-02-07T11:29:58;1.00;1.00;1.00
72467;PMS3003;60626;43.582;1.470;2023-02-07T11:32:30;0.00;0.00;0.00
72467;PMS3003;60626;43.582;1.470;2023-02-07T11:34:57;1.00;1.00;1.00
72467;PMS3003;60626;43.582;1.470;2023-02-07T11:37:31;1.00;1.00;1.00
72467;PMS3003;60626;43.582;1.470;2023-02-07T11:42:48;1.00;1.00;1.00
72467;PMS3003;60626;43.582;1.470;2023-02-07T11:45:21;2.00;0.25;0.00
72467;PMS3003;60626;43.582;1.470;2023-02-07T11:47:49;3.50;0.00;0.00
72467;PMS3003;60626;43.582;1.470;2023-02-07T11:50:23;2.50;1.00;1.00
72467;PMS3003;60626;43.582;1.470;2023-02-07T11:53:16;2.00;2.00;1.00
72467;PMS3003;60626;43.582;1.470;2023-02-07T11:55:50;1.50;1.00;0.50
72467;PMS3003;60626;43.582;1.470;2023-02-07T11:58:30;1.00;1.00;1.00
72467;PMS3003;60626;43.582;1.470;2023-02-07T12:01:00;1.50;1.50;1.00
72467;PMS3003;60626;43.582;1.470;2023-02-07T12:03:33;0.00;0.00;0.00
72467;PMS3003;60626;43.582;1.470;2023-02-07T12:06:08;4.00;2.00;2.00
72467;PMS3003;60626;43.582;1.470;2023-02-07T12:08:41;1.00;1.00;0.50
72467;PMS3003;60626;43.582;1.470;2023-02-07T12:11:11;2.00;2.00;1.75
72467;PMS3003;60626;43.582;1.470;2023-02-07T12:24:51;5.75;2.00;2.00
72467;PMS3003;60626;43.582;1.470;2023-02-07T12:27:26;1.00;1.00;1.00
72467;PMS3003;60626;43.582;1.470;2023-02-07T12:30:05;3.75;2.00;1.00
72467;PMS3003;60626;43.582;1.470;2023-02-07T12:35:52;2.50;2.50;2.00
72467;PMS3003;60626;43.582;1.470;2023-02-07T12:38:31;4.00;2.75;2.00
72467;PMS3003;60626;43.582;1.470;2023-02-07T12:41:13;8.00;5.00;3.75
72467;PMS3003;60626;43.582;1.470;2023-02-07T12:43:47;2.75;2.75;2.00
72467;PMS3003;60626;43.582;1.470;2023-02-07T12:46:45;4.00;2.50;1.00
72467;PMS3003;60626;43.582;1.470;2023-02-07T12:57:56;3.00;3.00;2.00
72467;PMS3003;60626;43.582;1.470;2023-02-07T13:00:49;3.00;3.00;1.75
72467;PMS3003;60626;43.582;1.470;2023-02-07T13:03:43;2.50;2.00;1.50
72467;PMS3003;60626;43.582;1.470;2023-02-07T13:09:42;1.00;1.00;0.75
72467;PMS3003;60626;43.582;1.470;2023-02-07T13:12:18;2.00;2.00;1.50
72467;PMS3003;60626;43.582;1.470;2023-02-07T13:15:06;2.50;1.75;1.50
72467;PMS3003;60626;43.582;1.470;2023-02-07T13:22:57;1.25;1.25;1.00
72467;PMS3003;60626;43.582;1.470;2023-02-07T13:25:28;3.25;1.00;1.00
72467;PMS3003;60626;43.582;1.470;2023-02-07T13:27:59;1.75;1.75;1.25
72467;PMS3003;60626;43.582;1.470;2023-02-07T13:30:31;1.00;1.00;1.00
72467;PMS3003;60626;43.582;1.470;2023-02-07T13:33:02;1.00;1.00;1.00
72467;PMS3003;60626;43.582;1.470;2023-02-07T13:35:38;1.00;1.00;1.00
72467;PMS3003;60626;43.582;1.470;2023-02-07T13:38:10;0.00;0.00;0.00
72467;PMS3003;60626;43.582;1.470;2023-02-07T13:43:47;1.00;1.00;1.00
72467;PMS3003;60626;43.582;1.470;2023-02-07T13:49:15;1.00;1.00;1.00
72467;PMS3003;60626;43.582;1.470;2023-02-07T13:52:08;3.00;2.00;1.00
72467;PMS3003;60626;43.582;1.470;2023-02-07T14:00:19;2.75;1.50;1.50
72467;PMS3003;60626;43.582;1.470;2023-02-07T14:02:53;1.00;1.00;1.00
72467;PMS3003;60626;43.582;1.470;2023-02-07T14:05:24;1.00;0.75;0.25
72467;PMS3003;60626;43.582;1.470;2023-02-07T14:07:54;1.00;1.00;1.00
72467;PMS3003;60626;43.582;1.470;2023-02-07T14:10:41;2.00;2.00;1.75
72467;PMS3003;60626;43.582;1.470;2023-02-07T14:13:34;1.75;1.75;1.00
72467;PMS3003;60626;43.582;1.470;2023-02-07T14:16:10;1.00;1.00;1.00
72467;PMS3003;60626;43.582;1.470;2023-02-07T14:18:48;1.00;1.00;1.00
72467;PMS3003;60626;43.582;1.470;2023-02-07T14:26:56;2.50;2.00;1.00
72467;PMS3003;60626;43.582;1.470;2023-02-07T14:29:39;2.00;2.00;2.00
72467;PMS3003;60626;43.582;1.470;2023-02-07T14:37:50;2.00;2.00;1.75
72467;PMS3003;60626;43.582;1.470;2023-02-07T14:43:00;1.00;1.00;1.00
72467;PMS3003;60626;43.582;1.470;2023-02-07T14:45:30;3.50;2.00;1.75
72467;PMS3003;60626;43.582;1.470;2023-02-07T14:48:00;2.50;1.25;1.25
72467;PMS3003;60626;43.582;1.470;2023-02-07T14:50:28;3.00;2.00;2.00
72467;PMS3003;60626;43.582;1.470;2023-02-07T14:52:57;3.00;3.00;2.00
72467;PMS3003;60626;43.582;1.470;2023-02-07T14:55:27;3.00;3.00;2.00
72467;PMS3003;60626;43.582;1.470;2023-02-07T14:58:00;4.00;2.25;2.00
72467;PMS3003;60626;43.582;1.470;2023-02-07T15:00:34;3.25;2.25;2.00
72467;PMS3003;60626;43.582;1.470;2023-02-07T15:03:11;3.50;2.75;2.00
72467;PMS3003;60626;43.582;1.470;2023-02-07T15:08:23;3.00;3.00;2.00
72467;PMS3003;60626;43.582;1.470;2023-02-07T15:10:53;2.00;2.00;2.00
72467;PMS3003;60626;43.582;1.470;2023-02-07T15:13:33;2.00;2.00;1.00
72467;PMS3003;60626;43.582;1.470;2023-02-07T15:18:39;2.50;2.50;2.00
72467;PMS3003;60626;43.582;1.470;2023-02-07T15:21:19;5.50;4.00;3.00
72467;PMS3003;60626;43.582;1.470;2023-02-07T15:23:55;4.00;4.00;3.00
72467;PMS3003;60626;43.582;1.470;2023-02-07T15:26:25;3.50;3.50;3.00
72467;PMS3003;60626;43.582;1.470;2023-02-07T15:28:59;2.50;1.00;0.00
72467;PMS3003;60626;43.582;1.470;2023-02-07T15:31:28;5.50;5.50;4.75
72467;PMS3003;60626;43.582;1.470;2023-02-07T15:33:56;3.75;3.25;2.75
72467;PMS3003;60626;43.582;1.470;2023-02-07T15:36:32;4.25;4.25;3.25
72467;PMS3003;60626;43.582;1.470;2023-02-07T15:39:06;5.00;5.00;4.00
72467;PMS3003;60626;43.582;1.470;2023-02-07T15:41:40;6.00;6.00;5.00
72467;PMS3003;60626;43.582;1.470;2023-02-07T15:44:16;6.00;4.50;3.50
72467;PMS3003;60626;43.582;1.470;2023-02-07T15:49:40;5.75;2.50;1.25
72467;PMS3003;60626;43.582;1.470;2023-02-07T15:52:24;4.00;4.00;3.25
72467;PMS3003;60626;43.582;1.470;2023-02-07T15:54:56;3.25;3.25;3.00
72467;PMS3003;60626;43.582;1.470;2023-02-07T15:57:32;4.00;4.00;3.00
72467;PMS3003;60626;43.582;1.470;2023-02-07T16:00:05;3.00;3.00;2.75
72467;PMS3003;60626;43.582;1.470;2023-02-07T16:02:35;5.00;5.00;4.00
72467;PMS3003;60626;43.582;1.470;2023-02-07T16:07:35;6.25;4.75;3.00
72467;PMS3003;60626;43.582;1.470;2023-02-07T16:10:15;4.00;4.00;2.25
72467;PMS3003;60626;43.582;1.470;2023-02-07T16:12:51;7.25;5.50;3.75
72467;PMS3003;60626;43.582;1.470;2023-02-07T16:15:38;7.75;6.75;5.00
72467;PMS3003;60626;43.582;1.470;2023-02-07T16:18:39;7.50;4.25;3.00
72467;PMS3003;60626;43.582;1.470;2023-02-07T16:21:12;6.50;6.50;5.25
72467;PMS3003;60626;43.582;1.470;2023-02-07T16:23:43;6.50;6.50;5.00
72467;PMS3003;60626;43.582;1.470;2023-02-07T16:26:10;10.25;8.25;6.00
72467;PMS3003;60626;43.582;1.470;2023-02-07T16:28:38;8.50;8.50;5.75
72467;PMS3003;60626;43.582;1.470;2023-02-07T16:31:04;7.00;7.00;5.00
72467;PMS3003;60626;43.582;1.470;2023-02-07T16:33:31;9.50;8.00;6.00